sensor_id;sensor_type;location;lat;lon;timestamp;temperature;humidity
28193;DHT22;15473;50.840;3.396;2023-03-15T00:01:21;4.90;99.90
28193;DHT22;15473;50.840;3.396;2023-03-15T00:04:06;4.90;99.90
28193;DHT22;15473;50.840;3.396;2023-03-15T00:06:49;4.90;99.90
28193;DHT22;15473;50.840;3.396;2023-03-15T00:09:27;4.90;99.90
28193;DHT22;15473;50.840;3.396;2023-03-15T00:12:04;4.90;99.90
28193;DHT22;15473;50.840;3.396;2023-03-15T00:14:35;5.00;99.90
28193;DHT22;15473;50.840;3.396;2023-03-15T00:17:12;5.00;99.90
28193;DHT22;15473;50.840;3.396;2023-03-15T00:19:42;5.00;99.90
28193;DHT22;15473;50.840;3.396;2023-03-15T00:22:19;5.00;99.90
28193;DHT22;15473;50.840;3.396;2023-03-15T00:24:52;5.00;99.90
28193;DHT22;15473;50.840;3.396;2023-03-15T00:27:23;5.00;99.90
28193;DHT22;15473;50.840;3.396;2023-03-15T00:30:04;5.00;99.90
28193;DHT22;15473;50.840;3.396;2023-03-15T00:32:36;5.00;99.90
28193;DHT22;15473;50.840;3.396;2023-03-15T00:35:06;5.00;99.90
28193;DHT22;15473;50.840;3.396;2023-03-15T00:37:36;5.00;99.90
28193;DHT22;15473;50.840;3.396;2023-03-15T00:40:09;5.00;99.90
28193;DHT22;15473;50.840;3.396;2023-03-15T00:42:41;5.00;99.90
28193;DHT22;15473;50.840;3.396;2023-03-15T00:45:12;4.90;99.90
28193;DHT22;15473;50.840;3.396;2023-03-15T00:47:43;4.90;99.90
28193;DHT22;15473;50.840;3.396;2023-03-15T00:50:20;4.90;99.90
28193;DHT22;15473;50.840;3.396;2023-03-15T00:52:52;4.90;99.90
28193;DHT22;15473;50.840;3.396;2023-03-15T00:55:35;4.90;99.90
28193;DHT22;15473;50.840;3.396;2023-03-15T00:58:09;4.90;99.90
28193;DHT22;15473;50.840;3.396;2023-03-15T01:00:39;4.90;99.90
28193;DHT22;15473;50.840;3.396;2023-03-15T01:03:11;4.90;99.90
28193;DHT22;15473;50.840;3.396;2023-03-15T01:05:48;5.00;99.90
28193;DHT22;15473;50.840;3.396;2023-03-15T01:08:18;5.00;99.90
28193;DHT22;15473;50.840;3.396;2023-03-15T01:10:48;4.90;99.90
28193;DHT22;15473;50.840;3.396;2023-03-15T01:13:24;4.90;99.90
28193;DHT22;15473;50.840;3.396;2023-03-15T01:15:54;4.90;99.90
28193;DHT22;15473;50.840;3.396;2023-03-15T01:18:31;4.90;99.90
28193;DHT22;15473;50.840;3.396;2023-03-15T01:23:59;4.90;99.90
28193;DHT22;15473;50.840;3.396;2023-03-15T01:26:30;4.90;99.90
28193;DHT22;15473;50.840;3.396;2023-03-15T01:29:07;4.90;99.90
28193;DHT22;15473;50.840;3.396;2023-03-15T01:31:43;4.90;99.90
28193;DHT22;15473;50.840;3.396;2023-03-15T01:34:19;4.90;99.90
28193;DHT22;15473;50.840;3.396;2023-03-15T01:36:50;4.90;99.90
28193;DHT22;15473;50.840;3.396;2023-03-15T01:39:28;4.90;99.90
28193;DHT22;15473;50.840;3.396;2023-03-15T01:41:58;4.90;99.90
28193;DHT22;15473;50.840;3.396;2023-03-15T01:44:57;4.90;99.90
28193;DHT22;15473;50.840;3.396;2023-03-15T01:47:37;4.90;99.90
28193;DHT22;15473;50.840;3.396;2023-03-15T01:50:08;4.90;99.90
28193;DHT22;15473;50.840;3.396;2023-03-15T01:52:41;5.00;99.90
28193;DHT22;15473;50.840;3.396;2023-03-15T01:55:16;5.00;99.90
28193;DHT22;15473;50.840;3.396;2023-03-15T01:57:53;5.00;99.90
28193;DHT22;15473;50.840;3.396;2023-03-15T02:00:25;5.00;99.90
28193;DHT22;15473;50.840;3.396;2023-03-15T02:03:05;5.00;99.90
28193;DHT22;15473;50.840;3.396;2023-03-15T02:05:40;5.00;99.90
28193;DHT22;15473;50.840;3.396;2023-03-15T02:08:15;5.00;99.90
28193;DHT22;15473;50.840;3.396;2023-03-15T02:10:48;5.00;99.90
28193;DHT22;15473;50.840;3.396;2023-03-15T02:13:21;4.90;99.90
28193;DHT22;15473;50.840;3.396;2023-03-15T02:15:58;4.90;99.90
28193;DHT22;15473;50.840;3.396;2023-03-15T02:18:28;4.90;99.90
28193;DHT22;15473;50.840;3.396;2023-03-15T02:24:17;4.90;99.90
28193;DHT22;15473;50.840;3.396;2023-03-15T02:26:51;4.90;99.90
28193;DHT22;15473;50.840;3.396;2023-03-15T02:29:28;4.90;99.90
28193;DHT22;15473;50.840;3.396;2023-03-15T02:34:49;4.80;99.90
28193;DHT22;15473;50.840;3.396;2023-03-15T02:37:27;4.80;99.90
28193;DHT22;15473;50.840;3.396;2023-03-15T02:39:57;4.80;99.90
28193;DHT22;15473;50.840;3.396;2023-03-15T02:42:35;4.70;99.90
28193;DHT22;15473;50.840;3.396;2023-03-15T02:45:05;4.70;99.90
28193;DHT22;15473;50.840;3.396;2023-03-15T02:47:36;4.70;99.90
28193;DHT22;15473;50.840;3.396;2023-03-15T02:50:07;4.70;99.90
28193;DHT22;15473;50.840;3.396;2023-03-15T02:52:37;4.70;99.90
28193;DHT22;15473;50.840;3.396;2023-03-15T02:55:14;4.70;99.90
28193;DHT22;15473;50.840;3.396;2023-03-15T02:58:12;4.70;99.90
28193;DHT22;15473;50.840;3.396;2023-03-15T03:00:42;4.70;99.90
28193;DHT22;15473;50.840;3.396;2023-03-15T03:03:19;4.60;99.90
28193;DHT22;15473;50.840;3.396;2023-03-15T03:05:52;4.60;99.90
28193;DHT22;15473;50.840;3.396;2023-03-15T03:08:22;4.60;99.90
28193;DHT22;15473;50.840;3.396;2023-03-15T03:10:52;4.60;99.90
28193;DHT22;15473;50.840;3.396;2023-03-15T03:13:23;4.60;99.90
28193;DHT22;15473;50.840;3.396;2023-03-15T03:15:53;4.60;99.90
28193;DHT22;15473;50.840;3.396;2023-03-15T03:18:35;4.60;99.90
28193;DHT22;15473;50.840;3.396;2023-03-15T03:21:06;4.60;99.90
28193;DHT22;15473;50.840;3.396;2023-03-15T03:23:37;4.60;99.90
28193;DHT22;15473;50.840;3.396;2023-03-15T03:26:16;4.70;99.90
28193;DHT22;15473;50.840;3.396;2023-03-15T03:29:00;4.70;99.90
28193;DHT22;15473;50.840;3.396;2023-03-15T03:31:43;4.70;99.90
28193;DHT22;15473;50.840;3.396;2023-03-15T03:34:13;4.70;99.90
28193;DHT22;15473;50.840;3.396;2023-03-15T03:36:50;4.70;99.90
28193;DHT22;15473;50.840;3.396;2023-03-15T03:39:40;4.70;99.90
28193;DHT22;15473;50.840;3.396;2023-03-15T03:42:10;4.70;99.90
28193;DHT22;15473;50.840;3.396;2023-03-15T03:44:44;4.60;99.90
28193;DHT22;15473;50.840;3.396;2023-03-15T03:47:14;4.60;99.90
28193;DHT22;15473;50.840;3.396;2023-03-15T03:49:50;4.60;99.90
28193;DHT22;15473;50.840;3.396;2023-03-15T03:52:27;4.60;99.90
28193;DHT22;15473;50.840;3.396;2023-03-15T03:54:59;4.50;99.90
28193;DHT22;15473;50.840;3.396;2023-03-15T03:57:36;4.50;99.90
28193;DHT22;15473;50.840;3.396;2023-03-15T04:00:07;4.50;99.90
28193;DHT22;15473;50.840;3.396;2023-03-15T04:02:37;4.50;99.90
28193;DHT22;15473;50.840;3.396;2023-03-15T04:05:09;4.50;99.90
28193;DHT22;15473;50.840;3.396;2023-03-15T04:07:40;4.50;99.90
28193;DHT22;15473;50.840;3.396;2023-03-15T04:10:10;4.50;99.90
28193;DHT22;15473;50.840;3.396;2023-03-15T04:12:45;4.50;99.90
28193;DHT22;15473;50.840;3.396;2023-03-15T04:15:15;4.50;99.90
28193;DHT22;15473;50.840;3.396;2023-03-15T04:17:45;4.50;99.90
28193;DHT22;15473;50.840;3.396;2023-03-15T04:20:15;4.50;99.90
28193;DHT22;15473;50.840;3.396;2023-03-15T04:22:45;4.50;99.90
28193;DHT22;15473;50.840;3.396;2023-03-15T04:25:18;4.50;99.90
28193;DHT22;15473;50.840;3.396;2023-03-15T04:27:50;4.50;99.90
28193;DHT22;15473;50.840;3.396;2023-03-15T04:30:28;4.40;99.90
28193;DHT22;15473;50.840;3.396;2023-03-15T04:33:05;4.40;99.90
28193;DHT22;15473;50.840;3.396;2023-03-15T04:35:36;4.40;99.90
28193;DHT22;15473;50.840;3.396;2023-03-15T04:38:09;4.40;99.90
28193;DHT22;15473;50.840;3.396;2023-03-15T04:40:39;4.40;99.90
28193;DHT22;15473;50.840;3.396;2023-03-15T04:43:12;4.30;99.90
28193;DHT22;15473;50.840;3.396;2023-03-15T04:45:42;4.20;99.90
28193;DHT22;15473;50.840;3.396;2023-03-15T04:48:18;4.20;99.90
28193;DHT22;15473;50.840;3.396;2023-03-15T04:50:52;4.10;99.90
28193;DHT22;15473;50.840;3.396;2023-03-15T04:53:28;4.00;99.90
28193;DHT22;15473;50.840;3.396;2023-03-15T04:56:02;3.90;99.90
28193;DHT22;15473;50.840;3.396;2023-03-15T04:58:32;3.90;99.90
28193;DHT22;15473;50.840;3.396;2023-03-15T05:04:01;3.80;99.90
28193;DHT22;15473;50.840;3.396;2023-03-15T05:06:31;3.80;99.90
28193;DHT22;15473;50.840;3.396;2023-03-15T05:09:03;3.70;99.90
28193;DHT22;15473;50.840;3.396;2023-03-15T05:11:33;3.70;99.90
28193;DHT22;15473;50.840;3.396;2023-03-15T05:14:05;3.60;99.90
28193;DHT22;15473;50.840;3.396;2023-03-15T05:16:41;3.50;99.90
28193;DHT22;15473;50.840;3.396;2023-03-15T05:19:15;3.50;99.90
28193;DHT22;15473;50.840;3.396;2023-03-15T05:21:51;3.50;99.90
28193;DHT22;15473;50.840;3.396;2023-03-15T05:24:24;3.40;99.90
28193;DHT22;15473;50.840;3.396;2023-03-15T05:26:54;3.30;99.90
28193;DHT22;15473;50.840;3.396;2023-03-15T05:29:25;3.30;99.90
28193;DHT22;15473;50.840;3.396;2023-03-15T05:32:08;3.20;99.90
28193;DHT22;15473;50.840;3.396;2023-03-15T05:34:40;3.20;99.90
28193;DHT22;15473;50.840;3.396;2023-03-15T05:37:10;3.10;99.90
28193;DHT22;15473;50.840;3.396;2023-03-15T05:39:40;3.10;99.90
28193;DHT22;15473;50.840;3.396;2023-03-15T05:42:11;3.00;99.90
28193;DHT22;15473;50.840;3.396;2023-03-15T05:44:47;3.00;99.90
28193;DHT22;15473;50.840;3.396;2023-03-15T05:47:25;2.90;99.90
28193;DHT22;15473;50.840;3.396;2023-03-15T05:49:56;2.90;99.90
28193;DHT22;15473;50.840;3.396;2023-03-15T05:52:40;2.80;99.90
28193;DHT22;15473;50.840;3.396;2023-03-15T05:55:17;2.80;99.90
28193;DHT22;15473;50.840;3.396;2023-03-15T05:57:53;2.80;99.90
28193;DHT22;15473;50.840;3.396;2023-03-15T06:00:23;2.80;99.90
28193;DHT22;15473;50.840;3.396;2023-03-15T06:02:53;2.80;99.90
28193;DHT22;15473;50.840;3.396;2023-03-15T06:05:23;2.80;99.90
28193;DHT22;15473;50.840;3.396;2023-03-15T06:07:53;2.70;99.90
28193;DHT22;15473;50.840;3.396;2023-03-15T06:10:30;2.70;99.90
28193;DHT22;15473;50.840;3.396;2023-03-15T06:13:08;2.70;99.90
28193;DHT22;15473;50.840;3.396;2023-03-15T06:15:46;2.60;99.90
28193;DHT22;15473;50.840;3.396;2023-03-15T06:18:20;2.60;99.90
28193;DHT22;15473;50.840;3.396;2023-03-15T06:20:51;2.60;99.90
28193;DHT22;15473;50.840;3.396;2023-03-15T06:23:21;2.50;99.90
28193;DHT22;15473;50.840;3.396;2023-03-15T06:25:51;2.50;99.90
28193;DHT22;15473;50.840;3.396;2023-03-15T06:28:27;2.50;99.90
28193;DHT22;15473;50.840;3.396;2023-03-15T06:30:57;2.50;99.90
28193;DHT22;15473;50.840;3.396;2023-03-15T06:33:40;2.50;99.90
28193;DHT22;15473;50.840;3.396;2023-03-15T06:36:16;2.50;99.90
28193;DHT22;15473;50.840;3.396;2023-03-15T06:38:49;2.50;99.90
28193;DHT22;15473;50.840;3.396;2023-03-15T06:41:21;2.50;99.90
28193;DHT22;15473;50.840;3.396;2023-03-15T06:43:52;2.50;99.90
28193;DHT22;15473;50.840;3.396;2023-03-15T06:46:23;2.50;99.90
28193;DHT22;15473;50.840;3.396;2023-03-15T06:49:06;2.60;99.90
28193;DHT22;15473;50.840;3.396;2023-03-15T06:51:36;2.60;99.90
28193;DHT22;15473;50.840;3.396;2023-03-15T06:57:03;2.70;99.90
28193;DHT22;15473;50.840;3.396;2023-03-15T06:59:33;2.80;99.90
28193;DHT22;15473;50.840;3.396;2023-03-15T07:05:06;3.00;99.90
28193;DHT22;15473;50.840;3.396;2023-03-15T07:07:39;3.20;99.90
28193;DHT22;15473;50.840;3.396;2023-03-15T07:10:11;3.50;99.90
28193;DHT22;15473;50.840;3.396;2023-03-15T07:12:47;3.70;99.90
28193;DHT22;15473;50.840;3.396;2023-03-15T07:15:19;3.90;99.90
28193;DHT22;15473;50.840;3.396;2023-03-15T07:17:55;4.20;99.90
28193;DHT22;15473;50.840;3.396;2023-03-15T07:20:25;4.30;99.90
28193;DHT22;15473;50.840;3.396;2023-03-15T07:23:10;4.40;99.90
28193;DHT22;15473;50.840;3.396;2023-03-15T07:25:44;4.50;99.90
28193;DHT22;15473;50.840;3.396;2023-03-15T07:28:23;4.60;99.90
28193;DHT22;15473;50.840;3.396;2023-03-15T07:31:02;4.60;99.90
28193;DHT22;15473;50.840;3.396;2023-03-15T07:33:33;4.70;99.90
28193;DHT22;15473;50.840;3.396;2023-03-15T07:36:02;4.80;99.90
28193;DHT22;15473;50.840;3.396;2023-03-15T07:38:37;4.80;99.90
28193;DHT22;15473;50.840;3.396;2023-03-15T07:41:05;4.80;99.90
28193;DHT22;15473;50.840;3.396;2023-03-15T07:43:34;4.70;99.90
28193;DHT22;15473;50.840;3.396;2023-03-15T07:46:09;4.70;99.90
28193;DHT22;15473;50.840;3.396;2023-03-15T07:48:38;4.70;99.90
28193;DHT22;15473;50.840;3.396;2023-03-15T07:51:08;4.80;99.90
28193;DHT22;15473;50.840;3.396;2023-03-15T07:53:42;4.80;99.90
28193;DHT22;15473;50.840;3.396;2023-03-15T07:56:10;4.80;99.90
28193;DHT22;15473;50.840;3.396;2023-03-15T07:58:38;4.90;99.90
28193;DHT22;15473;50.840;3.396;2023-03-15T08:01:11;4.90;99.90
28193;DHT22;15473;50.840;3.396;2023-03-15T08:03:45;4.90;99.90
28193;DHT22;15473;50.840;3.396;2023-03-15T08:06:19;5.00;99.90
28193;DHT22;15473;50.840;3.396;2023-03-15T08:08:47;5.10;99.90
28193;DHT22;15473;50.840;3.396;2023-03-15T08:11:21;5.20;99.90
28193;DHT22;15473;50.840;3.396;2023-03-15T08:13:49;5.20;99.90
28193;DHT22;15473;50.840;3.396;2023-03-15T08:16:17;5.30;99.90
28193;DHT22;15473;50.840;3.396;2023-03-15T08:18:48;5.40;99.90
28193;DHT22;15473;50.840;3.396;2023-03-15T08:21:23;5.50;99.90
28193;DHT22;15473;50.840;3.396;2023-03-15T08:23:58;5.60;99.90
28193;DHT22;15473;50.840;3.396;2023-03-15T08:26:32;5.70;99.90
28193;DHT22;15473;50.840;3.396;2023-03-15T08:28:59;5.80;99.90
28193;DHT22;15473;50.840;3.396;2023-03-15T08:31:27;5.90;99.90
28193;DHT22;15473;50.840;3.396;2023-03-15T08:34:02;6.00;99.90
28193;DHT22;15473;50.840;3.396;2023-03-15T08:36:37;6.10;99.90
28193;DHT22;15473;50.840;3.396;2023-03-15T08:39:09;6.20;99.90
28193;DHT22;15473;50.840;3.396;2023-03-15T08:41:44;6.40;99.90
28193;DHT22;15473;50.840;3.396;2023-03-15T08:44:19;6.50;99.90
28193;DHT22;15473;50.840;3.396;2023-03-15T08:46:53;6.60;99.90
28193;DHT22;15473;50.840;3.396;2023-03-15T08:49:20;6.80;99.90
28193;DHT22;15473;50.840;3.396;2023-03-15T08:51:51;7.10;99.90
28193;DHT22;15473;50.840;3.396;2023-03-15T08:54:25;7.30;99.90
28193;DHT22;15473;50.840;3.396;2023-03-15T08:56:56;7.50;99.90
28193;DHT22;15473;50.840;3.396;2023-03-15T08:59:30;7.80;99.90
28193;DHT22;15473;50.840;3.396;2023-03-15T09:04:47;8.40;99.90
28193;DHT22;15473;50.840;3.396;2023-03-15T09:07:15;8.70;99.90
28193;DHT22;15473;50.840;3.396;2023-03-15T09:09:43;8.90;99.90
28193;DHT22;15473;50.840;3.396;2023-03-15T09:12:15;9.20;99.90
28193;DHT22;15473;50.840;3.396;2023-03-15T09:17:43;9.80;99.90
28193;DHT22;15473;50.840;3.396;2023-03-15T09:20:17;10.10;99.90
28193;DHT22;15473;50.840;3.396;2023-03-15T09:22:56;10.20;99.90
28193;DHT22;15473;50.840;3.396;2023-03-15T09:25:27;10.40;99.90
28193;DHT22;15473;50.840;3.396;2023-03-15T09:27:58;10.70;99.90
28193;DHT22;15473;50.840;3.396;2023-03-15T09:30:37;11.10;99.90
28193;DHT22;15473;50.840;3.396;2023-03-15T09:33:15;11.40;99.90
28193;DHT22;15473;50.840;3.396;2023-03-15T09:38:49;11.80;99.90
28193;DHT22;15473;50.840;3.396;2023-03-15T09:50:18;12.90;99.90
28193;DHT22;15473;50.840;3.396;2023-03-15T09:55:45;13.20;99.90
28193;DHT22;15473;50.840;3.396;2023-03-15T10:01:11;12.80;99.90
28193;DHT22;15473;50.840;3.396;2023-03-15T10:06:52;12.70;99.90
28193;DHT22;15473;50.840;3.396;2023-03-15T10:09:23;12.60;99.90
28193;DHT22;15473;50.840;3.396;2023-03-15T10:12:22;12.70;99.90
28193;DHT22;15473;50.840;3.396;2023-03-15T10:20:48;16.60;99.90
28193;DHT22;15473;50.840;3.396;2023-03-15T10:23:47;19.00;99.90
28193;DHT22;15473;50.840;3.396;2023-03-15T10:26:15;20.70;99.90
28193;DHT22;15473;50.840;3.396;2023-03-15T10:28:47;22.00;99.90
28193;DHT22;15473;50.840;3.396;2023-03-15T10:31:26;22.50;99.90
28193;DHT22;15473;50.840;3.396;2023-03-15T10:33:58;23.00;99.90
28193;DHT22;15473;50.840;3.396;2023-03-15T10:36:29;23.40;99.90
28193;DHT22;15473;50.840;3.396;2023-03-15T10:38:59;23.80;99.90
28193;DHT22;15473;50.840;3.396;2023-03-15T10:41:40;24.20;99.90
28193;DHT22;15473;50.840;3.396;2023-03-15T10:44:16;24.80;99.90
28193;DHT22;15473;50.840;3.396;2023-03-15T10:47:04;25.20;99.90
28193;DHT22;15473;50.840;3.396;2023-03-15T10:49:43;26.10;99.90
28193;DHT22;15473;50.840;3.396;2023-03-15T10:52:28;26.60;99.90
28193;DHT22;15473;50.840;3.396;2023-03-15T10:57:53;27.40;99.90
28193;DHT22;15473;50.840;3.396;2023-03-15T11:00:30;27.70;99.90
28193;DHT22;15473;50.840;3.396;2023-03-15T11:03:14;28.00;99.90
28193;DHT22;15473;50.840;3.396;2023-03-15T11:05:42;28.40;99.90
28193;DHT22;15473;50.840;3.396;2023-03-15T11:08:15;29.10;99.90
28193;DHT22;15473;50.840;3.396;2023-03-15T11:10:47;28.40;99.90
28193;DHT22;15473;50.840;3.396;2023-03-15T11:13:22;29.20;99.90
28193;DHT22;15473;50.840;3.396;2023-03-15T11:19:00;29.80;99.90
28193;DHT22;15473;50.840;3.396;2023-03-15T11:21:29;30.10;99.90
28193;DHT22;15473;50.840;3.396;2023-03-15T11:24:04;30.50;99.90
28193;DHT22;15473;50.840;3.396;2023-03-15T11:26:42;30.70;99.90
28193;DHT22;15473;50.840;3.396;2023-03-15T11:29:24;30.90;99.90
28193;DHT22;15473;50.840;3.396;2023-03-15T11:32:02;31.10;99.90
28193;DHT22;15473;50.840;3.396;2023-03-15T11:34:40;30.80;99.90
28193;DHT22;15473;50.840;3.396;2023-03-15T11:37:33;30.40;99.90
28193;DHT22;15473;50.840;3.396;2023-03-15T11:43:09;28.10;99.60
28193;DHT22;15473;50.840;3.396;2023-03-15T11:51:44;27.50;99.90
28193;DHT22;15473;50.840;3.396;2023-03-15T11:54:16;27.10;99.90
28193;DHT22;15473;50.840;3.396;2023-03-15T11:56:53;26.80;99.90
28193;DHT22;15473;50.840;3.396;2023-03-15T11:59:31;26.90;99.90
28193;DHT22;15473;50.840;3.396;2023-03-15T12:05:04;26.90;99.90
28193;DHT22;15473;50.840;3.396;2023-03-15T12:07:55;27.00;99.90
28193;DHT22;15473;50.840;3.396;2023-03-15T12:10:19;27.10;99.90
28193;DHT22;15473;50.840;3.396;2023-03-15T12:12:56;27.10;99.90
28193;DHT22;15473;50.840;3.396;2023-03-15T12:18:11;26.60;99.90
28193;DHT22;15473;50.840;3.396;2023-03-15T12:20:55;26.40;99.70
28193;DHT22;15473;50.840;3.396;2023-03-15T12:23:38;26.00;99.90
28193;DHT22;15473;50.840;3.396;2023-03-15T12:26:30;25.70;99.90
28193;DHT22;15473;50.840;3.396;2023-03-15T12:29:06;25.60;99.90
28193;DHT22;15473;50.840;3.396;2023-03-15T12:31:49;25.40;99.90
28193;DHT22;15473;50.840;3.396;2023-03-15T12:34:49;25.40;99.90
28193;DHT22;15473;50.840;3.396;2023-03-15T12:45:44;23.80;99.90
28193;DHT22;15473;50.840;3.396;2023-03-15T12:48:20;24.20;99.90
28193;DHT22;15473;50.840;3.396;2023-03-15T12:51:40;24.70;99.90
28193;DHT22;15473;50.840;3.396;2023-03-15T12:53:50;25.30;99.90
28193;DHT22;15473;50.840;3.396;2023-03-15T12:56:32;25.90;99.90
28193;DHT22;15473;50.840;3.396;2023-03-15T12:59:24;26.20;99.90
28193;DHT22;15473;50.840;3.396;2023-03-15T13:02:01;26.50;99.90
28193;DHT22;15473;50.840;3.396;2023-03-15T13:04:32;26.80;99.90
28193;DHT22;15473;50.840;3.396;2023-03-15T13:07:24;27.00;99.90
28193;DHT22;15473;50.840;3.396;2023-03-15T13:10:23;27.20;99.90
28193;DHT22;15473;50.840;3.396;2023-03-15T13:17:04;27.10;98.40
28193;DHT22;15473;50.840;3.396;2023-03-15T13:18:56;26.30;99.90
28193;DHT22;15473;50.840;3.396;2023-03-15T13:21:23;26.10;99.90
28193;DHT22;15473;50.840;3.396;2023-03-15T13:23:56;26.30;99.90
28193;DHT22;15473;50.840;3.396;2023-03-15T13:26:48;26.30;99.90
28193;DHT22;15473;50.840;3.396;2023-03-15T13:29:43;26.40;99.90
28193;DHT22;15473;50.840;3.396;2023-03-15T13:32:17;26.40;99.90
28193;DHT22;15473;50.840;3.396;2023-03-15T13:34:48;26.50;99.90
28193;DHT22;15473;50.840;3.396;2023-03-15T13:37:26;26.60;99.90
28193;DHT22;15473;50.840;3.396;2023-03-15T13:40:03;26.80;99.90
28193;DHT22;15473;50.840;3.396;2023-03-15T13:42:40;27.00;99.90
28193;DHT22;15473;50.840;3.396;2023-03-15T13:45:15;27.40;99.90
28193;DHT22;15473;50.840;3.396;2023-03-15T13:47:45;27.60;99.90
28193;DHT22;15473;50.840;3.396;2023-03-15T13:50:18;27.90;99.90
28193;DHT22;15473;50.840;3.396;2023-03-15T13:52:55;28.20;99.90
28193;DHT22;15473;50.840;3.396;2023-03-15T13:55:31;27.80;99.90
28193;DHT22;15473;50.840;3.396;2023-03-15T13:58:07;27.60;99.90
28193;DHT22;15473;50.840;3.396;2023-03-15T14:00:36;27.90;99.90
28193;DHT22;15473;50.840;3.396;2023-03-15T14:03:19;28.10;99.90
28193;DHT22;15473;50.840;3.396;2023-03-15T14:05:55;28.30;99.90
28193;DHT22;15473;50.840;3.396;2023-03-15T14:08:30;28.30;99.90
28193;DHT22;15473;50.840;3.396;2023-03-15T14:16:45;28.70;99.90
28193;DHT22;15473;50.840;3.396;2023-03-15T14:19:23;28.80;99.90
28193;DHT22;15473;50.840;3.396;2023-03-15T14:22:03;28.90;99.90
28193;DHT22;15473;50.840;3.396;2023-03-15T14:24:39;28.80;99.90
28193;DHT22;15473;50.840;3.396;2023-03-15T14:27:15;28.60;99.90
28193;DHT22;15473;50.840;3.396;2023-03-15T14:32:55;28.00;99.90
28193;DHT22;15473;50.840;3.396;2023-03-15T14:35:34;27.70;99.90
28193;DHT22;15473;50.840;3.396;2023-03-15T14:38:16;27.30;99.90
28193;DHT22;15473;50.840;3.396;2023-03-15T14:40:47;26.90;99.90
28193;DHT22;15473;50.840;3.396;2023-03-15T14:43:17;26.60;99.90
28193;DHT22;15473;50.840;3.396;2023-03-15T14:45:48;26.30;99.90
28193;DHT22;15473;50.840;3.396;2023-03-15T14:48:29;25.90;99.90
28193;DHT22;15473;50.840;3.396;2023-03-15T14:51:00;25.40;99.90
28193;DHT22;15473;50.840;3.396;2023-03-15T14:53:33;25.00;99.90
28193;DHT22;15473;50.840;3.396;2023-03-15T14:56:03;24.60;99.90
28193;DHT22;15473;50.840;3.396;2023-03-15T14:58:33;24.30;99.90
28193;DHT22;15473;50.840;3.396;2023-03-15T15:01:06;23.90;99.90
28193;DHT22;15473;50.840;3.396;2023-03-15T15:03:45;23.60;99.90
28193;DHT22;15473;50.840;3.396;2023-03-15T15:06:16;23.20;99.90
28193;DHT22;15473;50.840;3.396;2023-03-15T15:08:47;22.90;99.90
28193;DHT22;15473;50.840;3.396;2023-03-15T15:11:26;22.50;99.90
28193;DHT22;15473;50.840;3.396;2023-03-15T15:13:57;22.10;99.90
28193;DHT22;15473;50.840;3.396;2023-03-15T15:16:27;21.70;99.90
28193;DHT22;15473;50.840;3.396;2023-03-15T15:18:58;21.40;99.90
28193;DHT22;15473;50.840;3.396;2023-03-15T15:21:32;21.20;99.90
28193;DHT22;15473;50.840;3.396;2023-03-15T15:24:09;21.00;99.90
28193;DHT22;15473;50.840;3.396;2023-03-15T15:26:38;20.70;99.90
28193;DHT22;15473;50.840;3.396;2023-03-15T15:29:15;20.60;99.90
28193;DHT22;15473;50.840;3.396;2023-03-15T15:31:45;20.40;99.90
28193;DHT22;15473;50.840;3.396;2023-03-15T15:34:15;20.30;99.90
28193;DHT22;15473;50.840;3.396;2023-03-15T15:36:52;20.10;99.90
28193;DHT22;15473;50.840;3.396;2023-03-15T15:39:29;20.00;99.90
28193;DHT22;15473;50.840;3.396;2023-03-15T15:41:59;19.80;99.90
28193;DHT22;15473;50.840;3.396;2023-03-15T15:44:31;19.70;99.90
28193;DHT22;15473;50.840;3.396;2023-03-15T15:47:07;19.60;99.90
28193;DHT22;15473;50.840;3.396;2023-03-15T15:49:37;19.50;99.90
28193;DHT22;15473;50.840;3.396;2023-03-15T15:52:10;19.30;99.90
28193;DHT22;15473;50.840;3.396;2023-03-15T15:54:41;19.20;99.90
28193;DHT22;15473;50.840;3.396;2023-03-15T15:57:19;19.00;99.90
28193;DHT22;15473;50.840;3.396;2023-03-15T15:59:43;18.70;99.90
28193;DHT22;15473;50.840;3.396;2023-03-15T16:02:19;18.40;99.90
28193;DHT22;15473;50.840;3.396;2023-03-15T16:04:50;18.10;99.90
28193;DHT22;15473;50.840;3.396;2023-03-15T16:07:26;17.80;99.90
28193;DHT22;15473;50.840;3.396;2023-03-15T16:09:58;17.50;99.90
28193;DHT22;15473;50.840;3.396;2023-03-15T16:12:33;17.20;99.90
28193;DHT22;15473;50.840;3.396;2023-03-15T16:15:15;17.00;99.90
28193;DHT22;15473;50.840;3.396;2023-03-15T16:17:45;16.80;99.90
28193;DHT22;15473;50.840;3.396;2023-03-15T16:20:22;16.50;99.90
28193;DHT22;15473;50.840;3.396;2023-03-15T16:22:57;16.30;99.90
28193;DHT22;15473;50.840;3.396;2023-03-15T16:25:50;16.10;99.90
28193;DHT22;15473;50.840;3.396;2023-03-15T16:31:20;15.70;99.90
28193;DHT22;15473;50.840;3.396;2023-03-15T16:33:50;15.50;99.90
28193;DHT22;15473;50.840;3.396;2023-03-15T16:36:24;15.40;99.90
28193;DHT22;15473;50.840;3.396;2023-03-15T16:39:03;15.30;99.90
28193;DHT22;15473;50.840;3.396;2023-03-15T16:41:34;15.10;99.90
28193;DHT22;15473;50.840;3.396;2023-03-15T16:47:11;14.70;99.90
28193;DHT22;15473;50.840;3.396;2023-03-15T16:49:41;14.50;99.90
28193;DHT22;15473;50.840;3.396;2023-03-15T16:52:18;14.40;99.90
28193;DHT22;15473;50.840;3.396;2023-03-15T16:54:50;14.20;99.90
28193;DHT22;15473;50.840;3.396;2023-03-15T16:57:27;14.00;99.90
28193;DHT22;15473;50.840;3.396;2023-03-15T16:59:57;13.90;99.90
28193;DHT22;15473;50.840;3.396;2023-03-15T17:02:27;13.70;99.90
28193;DHT22;15473;50.840;3.396;2023-03-15T17:05:00;13.60;99.90
28193;DHT22;15473;50.840;3.396;2023-03-15T17:07:33;13.40;99.90
28193;DHT22;15473;50.840;3.396;2023-03-15T17:10:09;13.30;99.90
28193;DHT22;15473;50.840;3.396;2023-03-15T17:12:40;13.10;99.90
28193;DHT22;15473;50.840;3.396;2023-03-15T17:15:15;12.90;99.90
28193;DHT22;15473;50.840;3.396;2023-03-15T17:17:48;12.70;99.90
28193;DHT22;15473;50.840;3.396;2023-03-15T17:20:20;12.60;99.90
28193;DHT22;15473;50.840;3.396;2023-03-15T17:25:43;12.20;99.90
28193;DHT22;15473;50.840;3.396;2023-03-15T17:28:13;12.00;99.90
28193;DHT22;15473;50.840;3.396;2023-03-15T17:30:43;11.80;99.90
28193;DHT22;15473;50.840;3.396;2023-03-15T17:33:15;11.70;99.90
28193;DHT22;15473;50.840;3.396;2023-03-15T17:35:48;11.50;99.90
28193;DHT22;15473;50.840;3.396;2023-03-15T17:38:21;11.30;99.90
28193;DHT22;15473;50.840;3.396;2023-03-15T17:40:59;11.20;99.90
28193;DHT22;15473;50.840;3.396;2023-03-15T17:43:30;11.00;99.90
28193;DHT22;15473;50.840;3.396;2023-03-15T17:46:00;10.90;99.90
28193;DHT22;15473;50.840;3.396;2023-03-15T17:51:30;10.50;99.90
28193;DHT22;15473;50.840;3.396;2023-03-15T17:54:13;10.40;99.90
28193;DHT22;15473;50.840;3.396;2023-03-15T18:00:00;10.10;99.90
28193;DHT22;15473;50.840;3.396;2023-03-15T18:02:35;10.00;99.90
28193;DHT22;15473;50.840;3.396;2023-03-15T18:05:22;9.90;99.90
28193;DHT22;15473;50.840;3.396;2023-03-15T18:07:55;9.70;99.90
28193;DHT22;15473;50.840;3.396;2023-03-15T18:10:37;9.70;99.90
28193;DHT22;15473;50.840;3.396;2023-03-15T18:13:15;9.60;99.90